Time;durP1;ratioP1;P1;durP2;ratioP2;P2;SDS_P1;SDS_P2;PMS_P1;PMS_P2;Temp;Humidity;BMP_temperature;BMP_pressure;BME280_temperature;BME280_humidity;BME280_pressure;Samples;Min_cycle;Max_cycle;Signal;HPM_P1;HPM_P2
2023/05/16 00:02:53;;;;;;;8.90;8.10;;;;;;;9.96;93.55;98679.39;436896;1253;139883;-64
2023/05/16 00:13:00;;;;;;;8.40;7.60;;;;;;;9.73;93.93;98680.23;437031;1251;140505;-63
2023/05/16 00:23:06;;;;;;;11.30;9.30;;;;;;;9.51;94.79;98686.73;436810;1251;139748;-63
2023/05/16 00:33:12;;;;;;;8.00;7.40;;;;;;;9.60;95.65;98692.55;436916;1251;140899;-63
2023/05/16 00:43:18;;;;;;;8.80;8.10;;;;;;;9.71;95.73;98688.92;436955;1252;138856;-62
2023/05/16 00:53:25;;;;;;;9.50;8.70;;;;;;;9.65;96.06;98692.33;436894;1253;139876;-63
2023/05/16 01:03:31;;;;;;;9.80;8.90;;;;;;;9.68;96.63;98695.41;437219;1253;139755;-63
2023/05/16 01:13:48;;;;;;;8.00;7.30;;;;;;;9.77;96.91;98696.32;437254;1251;139112;-63
2023/05/16 01:24:13;;;;;;;8.70;7.80;;;;;;;9.82;96.92;98700.34;437241;1252;140052;-61
2023/05/16 01:34:19;;;;;;;10.00;9.10;;;;;;;9.83;96.82;98697.86;436999;1251;139836;-62
2023/05/16 01:44:31;;;;;;;10.30;9.40;;;;;;;9.71;96.47;98702.88;436951;1249;138786;-63
2023/05/16 01:54:42;;;;;;;10.20;9.30;;;;;;;9.40;96.35;98706.02;436786;1251;140034;-63
2023/05/16 02:04:48;;;;;;;9.40;8.60;;;;;;;9.15;96.82;98708.53;436846;1251;139447;-63
2023/05/16 02:14:54;;;;;;;10.20;9.30;;;;;;;8.93;97.30;98710.65;436610;1251;138763;-62
2023/05/16 02:25:00;;;;;;;11.70;10.00;;;;;;;8.76;97.79;98704.31;436494;1251;139968;-63
2023/05/16 02:35:07;;;;;;;9.70;8.70;;;;;;;8.61;97.95;98714.92;436537;1251;140909;-62
2023/05/16 02:45:13;;;;;;;11.20;10.20;;;;;;;8.51;98.24;98717.91;437289;1250;140317;-63
2023/05/16 02:55:19;;;;;;;11.10;10.00;;;;;;;8.47;98.32;98715.57;436650;1251;139530;-63
2023/05/16 03:05:39;;;;;;;11.30;10.10;;;;;;;8.55;98.62;98721.50;436569;1251;141236;-63
2023/05/16 03:15:45;;;;;;;13.10;11.80;;;;;;;8.69;98.65;98721.71;436544;1253;140653;-62
2023/05/16 03:25:51;;;;;;;12.60;10.30;;;;;;;8.90;98.38;98723.41;436714;1253;140134;-63
2023/05/16 03:35:57;;;;;;;10.20;9.20;;;;;;;9.12;98.03;98727.79;436594;1251;140540;-62
2023/05/16 03:46:04;;;;;;;10.20;9.40;;;;;;;9.44;97.53;98748.89;437200;1253;142430;-63
2023/05/16 03:56:09;;;;;;;10.00;9.20;;;;;;;9.81;96.99;98762.79;438200;1251;139388;-62
2023/05/16 04:06:15;;;;;;;9.80;9.00;;;;;;;10.28;96.07;98782.41;436798;1253;138965;-63
2023/05/16 04:16:21;;;;;;;9.10;7.40;;;;;;;13.67;95.93;98796.95;436517;1253;139577;-62
2023/05/16 04:26:26;;;;;;;7.30;6.50;;;;;;;18.22;85.74;98797.24;436412;1250;138851;-62
2023/05/16 04:36:34;;;;;;;6.10;5.40;;;;;;;20.57;76.11;98824.53;436335;1253;139052;-62
2023/05/16 04:46:40;;;;;;;6.40;5.70;;;;;;;20.06;72.82;98812.91;436028;1250;138804;-62
2023/05/16 04:56:46;;;;;;;5.90;5.30;;;;;;;24.43;67.33;98805.02;436091;1250;138460;-63
2023/05/16 05:06:52;;;;;;;5.70;4.30;;;;;;;27.38;59.65;98804.88;436311;1249;138968;-62
2023/05/16 05:16:57;;;;;;;4.70;4.40;;;;;;;29.61;51.28;98814.64;435963;1254;138566;-62
2023/05/16 05:27:03;;;;;;;5.30;4.90;;;;;;;31.69;45.75;98820.67;436121;1250;138094;-61
2023/05/16 05:37:08;;;;;;;;;;;;;;;31.82;41.60;98839.67;435866;1254;138042;-61
2023/05/16 05:47:14;;;;;;;6.30;4.70;;;;;;;26.53;42.16;98874.39;436049;1253;126493;-62
2023/05/16 05:57:20;;;;;;;6.20;4.90;;;;;;;22.39;46.15;98895.56;435899;1250;138808;-62
2023/05/16 06:07:26;;;;;;;6.70;5.40;;;;;;;22.92;46.55;98899.38;437029;1249;138670;-63
2023/05/16 06:17:32;;;;;;;8.70;6.70;;;;;;;22.67;46.46;98907.59;437048;1248;138548;-61
2023/05/16 06:27:38;;;;;;;8.10;7.10;;;;;;;20.55;48.05;98922.77;437078;1252;138678;-61
2023/05/16 06:37:44;;;;;;;7.80;7.20;;;;;;;18.99;50.31;98938.47;437159;1248;138728;-62
2023/05/16 06:47:49;;;;;;;11.90;8.20;;;;;;;17.48;52.82;98967.77;437312;1253;139682;-63
2023/05/16 06:57:55;;;;;;;4.70;4.10;;;;;;;22.59;52.77;98979.27;437298;1248;139031;-62
2023/05/16 07:08:02;;;;;;;4.10;2.70;;;;;;;30.55;42.71;98987.85;437206;1248;139022;-65
2023/05/16 07:18:11;;;;;;;2.90;2.70;;;;;;;34.34;36.53;98995.18;437177;1252;215505;-62
2023/05/16 07:28:17;;;;;;;2.20;2.00;;;;;;;36.99;33.41;98998.60;437553;1248;138209;-62
2023/05/16 07:38:23;;;;;;;5.80;3.60;;;;;;;36.00;30.45;98999.44;437293;1253;138278;-62
2023/05/16 07:48:29;;;;;;;2.20;2.00;;;;;;;31.21;31.12;99011.39;437482;1253;138405;-62
2023/05/16 07:58:35;;;;;;;3.00;2.80;;;;;;;29.61;32.17;99017.77;436938;1248;138580;-62
2023/05/16 08:08:41;;;;;;;2.30;2.20;;;;;;;27.14;33.85;99017.27;437199;1251;139673;-63
2023/05/16 08:18:47;;;;;;;3.40;2.50;;;;;;;24.73;35.96;99016.11;437261;1252;139120;-63
2023/05/16 08:28:53;;;;;;;5.80;2.50;;;;;;;23.36;38.19;99021.92;437451;1253;140013;-62
2023/05/16 08:38:58;;;;;;;2.10;2.00;;;;;;;22.17;39.56;99023.16;437538;1253;138083;-62
2023/05/16 08:49:08;;;;;;;4.30;2.40;;;;;;;21.10;41.37;99024.30;437687;1251;139173;-62
2023/05/16 08:59:14;;;;;;;3.70;1.70;;;;;;;20.61;42.59;99028.04;437431;1248;138779;-63
2023/05/16 09:09:20;;;;;;;2.00;1.50;;;;;;;20.50;43.22;99039.88;437264;1248;139827;-63
2023/05/16 09:19:26;;;;;;;2.40;1.40;;;;;;;20.75;43.24;99048.91;437271;1248;138626;-62
2023/05/16 09:29:34;;;;;;;1.30;1.20;;;;;;;20.64;43.07;99060.38;437254;1251;138519;-62
2023/05/16 09:39:47;;;;;;;1.40;1.30;;;;;;;20.27;43.68;99089.95;437029;1253;139068;-62
2023/05/16 09:49:54;;;;;;;1.40;1.30;;;;;;;20.49;43.21;99103.80;437507;1253;138255;-62
2023/05/16 10:00:04;;;;;;;4.80;1.10;;;;;;;21.05;43.30;99114.91;437310;1253;138642;-64
2023/05/16 10:10:12;;;;;;;1.70;1.20;;;;;;;21.63;42.80;99134.80;437850;1250;139017;-64
2023/05/16 10:20:20;;;;;;;1.70;1.10;;;;;;;22.27;42.16;99134.98;437279;1253;141081;-62
2023/05/16 10:30:25;;;;;;;;;;;;;;;22.95;41.33;99130.16;437453;1249;139397;-62
2023/05/16 10:40:32;;;;;;;2.50;2.30;;;;;;;23.09;40.85;99143.63;437094;1253;126259;-62
2023/05/16 10:50:40;;;;;;;3.00;1.80;;;;;;;22.59;41.42;99152.25;436968;1248;138072;-62
2023/05/16 11:00:47;;;;;;;2.10;1.30;;;;;;;22.96;41.55;99155.48;437408;1253;138473;-63
2023/05/16 11:11:30;;;;;;;3.00;1.80;;;;;;;23.07;41.14;99159.84;437217;1253;138965;-62
2023/05/16 11:22:06;;;;;;;2.30;1.60;;;;;;;22.58;41.10;99164.91;437179;1251;139276;-63
2023/05/16 11:32:12;;;;;;;1.80;1.60;;;;;;;21.68;41.72;99154.52;437239;1251;139418;-63
2023/05/16 11:42:18;;;;;;;7.20;2.10;;;;;;;20.95;42.84;99142.27;436899;1253;138723;-62
2023/05/16 11:52:25;;;;;;;2.10;1.90;;;;;;;21.00;43.23;99147.55;437016;1253;140660;-63
2023/05/16 12:02:31;;;;;;;4.30;1.70;;;;;;;20.77;43.36;99157.25;439068;1252;138036;-61
2023/05/16 12:12:40;;;;;;;3.70;1.70;;;;;;;20.67;43.67;99158.75;437380;1253;138076;-63
2023/05/16 12:22:47;;;;;;;5.40;1.70;;;;;;;20.65;43.72;99155.19;436890;1250;139448;-61
2023/05/16 12:32:57;;;;;;;1.40;1.30;;;;;;;21.16;43.54;99157.19;437078;1248;138559;-62
2023/05/16 12:43:03;;;;;;;1.70;1.60;;;;;;;21.70;42.32;99162.34;436952;1252;138245;-62
2023/05/16 12:53:13;;;;;;;2.40;1.30;;;;;;;21.73;41.95;99164.95;436833;1252;139239;-62
2023/05/16 13:03:20;;;;;;;2.90;1.80;;;;;;;21.81;41.79;99166.53;437852;1252;138668;-62
2023/05/16 13:13:26;;;;;;;1.70;1.50;;;;;;;21.34;41.70;99174.56;437195;1248;138519;-62
2023/05/16 13:23:41;;;;;;;2.50;1.80;;;;;;;21.22;41.40;99172.65;436985;1251;139317;-62
2023/05/16 13:33:46;;;;;;;3.20;1.90;;;;;;;21.64;41.40;99171.61;436890;1253;138519;-61
2023/05/16 13:43:52;;;;;;;3.10;1.60;;;;;;;21.76;41.42;99167.33;437034;1248;138119;-63
2023/05/16 13:53:58;;;;;;;3.30;2.10;;;;;;;21.58;41.36;99159.58;436808;1253;139112;-62
2023/05/16 14:04:04;;;;;;;2.60;1.90;;;;;;;21.23;41.52;99155.02;436340;1253;138996;-62
2023/05/16 14:14:10;;;;;;;1.90;1.70;;;;;;;21.32;41.86;99148.52;436580;1253;139308;-62
2023/05/16 14:24:16;;;;;;;1.70;1.60;;;;;;;21.23;42.27;99154.45;436587;1253;139819;-63
2023/05/16 14:34:22;;;;;;;3.90;2.40;;;;;;;20.95;41.95;99155.92;436629;1251;139657;-61
2023/05/16 14:44:28;;;;;;;3.20;1.90;;;;;;;20.76;42.60;99153.73;436643;1253;140400;-63
2023/05/16 14:54:35;;;;;;;2.40;2.20;;;;;;;20.52;43.23;99150.61;436709;1253;140040;-63
2023/05/16 15:04:41;;;;;;;2.00;1.80;;;;;;;20.45;43.57;99164.55;436479;1248;139736;-62
2023/05/16 15:14:47;;;;;;;3.50;1.80;;;;;;;20.37;43.93;99168.58;436833;1253;138761;-61
2023/05/16 15:24:52;;;;;;;2.40;1.80;;;;;;;20.34;44.41;99164.81;436960;1251;139549;-62
2023/05/16 15:34:58;;;;;;;2.90;1.80;;;;;;;19.87;45.39;99167.52;436718;1253;138369;-62
2023/05/16 15:45:05;;;;;;;2.50;2.30;;;;;;;19.41;46.01;99158.27;436993;1248;138094;-62
2023/05/16 15:55:11;;;;;;;2.40;2.10;;;;;;;19.23;46.53;99152.92;437192;1253;138129;-61
2023/05/16 16:05:17;;;;;;;2.90;2.70;;;;;;;18.90;47.02;99155.13;436777;1253;139175;-61
2023/05/16 16:15:23;;;;;;;3.20;2.20;;;;;;;18.33;48.09;99154.29;436405;1253;139855;-62
2023/05/16 16:25:29;;;;;;;2.40;2.20;;;;;;;18.20;48.63;99151.02;436711;1248;138949;-62
2023/05/16 16:35:35;;;;;;;4.20;2.30;;;;;;;18.13;49.13;99157.05;436990;1253;139896;-63
2023/05/16 16:45:41;;;;;;;2.60;2.10;;;;;;;17.92;49.32;99167.76;436973;1253;139197;-65
2023/05/16 16:55:47;;;;;;;2.20;2.10;;;;;;;17.72;50.01;99171.22;437093;1253;138508;-62
2023/05/16 17:05:53;;;;;;;3.90;1.80;;;;;;;17.43;50.44;99171.49;437245;1253;139364;-62
2023/05/16 17:15:58;;;;;;;3.10;2.10;;;;;;;17.12;51.20;99175.52;436921;1253;139464;-61
2023/05/16 17:26:04;;;;;;;2.50;2.20;;;;;;;16.91;51.91;99175.39;437028;1253;139369;-62
2023/05/16 17:36:10;;;;;;;3.00;2.70;;;;;;;16.75;52.42;99183.84;436948;1253;138391;-62
2023/05/16 17:46:16;;;;;;;2.50;2.30;;;;;;;16.59;52.83;99187.70;437372;1253;139131;-62
2023/05/16 17:56:22;;;;;;;4.20;2.60;;;;;;;16.44;53.17;99193.64;437037;1253;138021;-63
2023/05/16 18:06:28;;;;;;;3.80;2.80;;;;;;;16.30;53.60;99203.98;437038;1253;138291;-62
2023/05/16 18:16:35;;;;;;;5.70;3.50;;;;;;;16.15;54.23;99210.20;437447;1254;138604;-62
2023/05/16 18:26:42;;;;;;;3.20;2.90;;;;;;;16.02;54.82;99216.87;438008;1252;138122;-61
2023/05/16 18:36:49;;;;;;;3.80;3.00;;;;;;;15.90;55.35;99225.13;437405;1251;138123;-60
2023/05/16 18:46:56;;;;;;;5.10;3.90;;;;;;;15.82;56.00;99238.02;437411;1253;138409;-61
2023/05/16 18:57:02;;;;;;;7.70;6.90;;;;;;;15.76;56.84;99248.15;437353;1251;138707;-62
2023/05/16 19:07:08;;;;;;;7.10;6.50;;;;;;;15.68;58.40;99265.62;437393;1252;138366;-63
2023/05/16 19:17:13;;;;;;;7.20;6.60;;;;;;;15.55;59.97;99280.66;436895;1251;139254;-62
2023/05/16 19:27:19;;;;;;;6.70;6.00;;;;;;;15.42;63.14;99281.81;437031;1254;140879;-62
2023/05/16 19:37:25;;;;;;;6.60;6.00;;;;;;;15.16;64.74;99292.03;436933;1251;138911;-62
2023/05/16 19:47:31;;;;;;;7.50;6.70;;;;;;;14.98;66.65;99293.10;436600;1253;139200;-63
2023/05/16 19:57:37;;;;;;;7.90;7.10;;;;;;;14.77;68.88;99307.02;436763;1248;139009;-62
2023/05/16 20:07:43;;;;;;;8.00;7.30;;;;;;;14.42;71.15;99308.87;436823;1251;139762;-61
2023/05/16 20:17:49;;;;;;;10.20;9.30;;;;;;;14.24;72.75;99308.79;436646;1252;139956;-62
2023/05/16 20:27:55;;;;;;;11.30;10.20;;;;;;;13.98;74.27;99299.55;436838;1253;139179;-62
2023/05/16 20:38:01;;;;;;;14.00;12.90;;;;;;;13.70;75.64;99303.40;436664;1253;140344;-62
2023/05/16 20:48:07;;;;;;;16.80;15.40;;;;;;;13.48;77.09;99311.14;436681;1251;139533;-62
2023/05/16 20:58:14;;;;;;;17.50;15.90;;;;;;;13.34;78.49;99314.13;436940;1251;140802;-62
2023/05/16 21:08:20;;;;;;;19.30;17.60;;;;;;;13.24;79.51;99311.02;437291;1251;140425;-63
2023/05/16 21:18:26;;;;;;;17.90;16.30;;;;;;;13.07;80.71;99314.16;437061;1249;141262;-62
2023/05/16 21:28:31;;;;;;;18.00;16.40;;;;;;;13.00;81.88;99319.98;436981;1251;139344;-62
2023/05/16 21:38:47;;;;;;;15.40;13.90;;;;;;;12.95;82.68;99324.92;436835;1251;140310;-61
2023/05/16 21:48:53;;;;;;;16.70;15.20;;;;;;;12.83;83.56;99321.79;437586;1251;140140;-61
2023/05/16 21:58:59;;;;;;;19.30;17.20;;;;;;;12.73;84.24;99324.32;437175;1248;140514;-62
2023/05/16 22:09:05;;;;;;;19.30;17.50;;;;;;;12.66;85.29;99322.58;437192;1251;140724;-62
2023/05/16 22:19:12;;;;;;;19.40;17.60;;;;;;;12.55;86.06;99314.41;437058;1248;140014;-62
2023/05/16 22:29:17;;;;;;;21.80;19.60;;;;;;;12.36;86.66;99317.11;436847;1251;140708;-62
2023/05/16 22:39:23;;;;;;;22.10;19.80;;;;;;;12.17;87.15;99317.50;436583;1251;140842;-63
2023/05/16 22:49:29;;;;;;;22.20;20.00;;;;;;;12.00;88.00;99310.84;436951;1253;141661;-63
2023/05/16 22:59:35;;;;;;;18.90;17.00;;;;;;;11.87;88.93;99312.45;436753;1251;139484;-61
2023/05/16 23:09:41;;;;;;;20.50;17.40;;;;;;;11.77;89.88;99297.40;437113;1253;140657;-62
2023/05/16 23:19:47;;;;;;;19.70;17.70;;;;;;;11.73;90.70;99292.11;437030;1248;139218;-62
2023/05/16 23:29:53;;;;;;;20.30;18.20;;;;;;;11.68;91.51;99282.98;436870;1251;140625;-61
2023/05/16 23:39:58;;;;;;;19.90;17.80;;;;;;;11.65;92.66;99278.45;437440;1248;141049;-62
2023/05/16 23:50:05;;;;;;;18.00;16.20;;;;;;;11.64;93.10;99264.89;436539;1253;139697;-62
